sensor_id;sensor_type;location;lat;lon;timestamp;temperature;humidity
37874;DHT22;23709;48.078;11.684;2023-08-20T00:01:56;21.70;99.90
37874;DHT22;23709;48.078;11.684;2023-08-20T00:04:31;21.60;99.90
37874;DHT22;23709;48.078;11.684;2023-08-20T00:07:05;21.60;99.90
37874;DHT22;23709;48.078;11.684;2023-08-20T00:09:37;21.50;99.90
37874;DHT22;23709;48.078;11.684;2023-08-20T00:12:10;21.50;99.90
37874;DHT22;23709;48.078;11.684;2023-08-20T00:17:31;21.30;99.90
37874;DHT22;23709;48.078;11.684;2023-08-20T00:20:05;21.20;99.90
37874;DHT22;23709;48.078;11.684;2023-08-20T00:22:45;21.30;99.90
37874;DHT22;23709;48.078;11.684;2023-08-20T00:25:18;21.30;99.90
37874;DHT22;23709;48.078;11.684;2023-08-20T00:27:51;21.30;99.90
37874;DHT22;23709;48.078;11.684;2023-08-20T00:30:23;21.20;99.90
37874;DHT22;23709;48.078;11.684;2023-08-20T00:32:56;21.10;99.90
37874;DHT22;23709;48.078;11.684;2023-08-20T00:35:29;21.10;99.90
37874;DHT22;23709;48.078;11.684;2023-08-20T00:38:01;21.00;99.90
37874;DHT22;23709;48.078;11.684;2023-08-20T00:40:34;21.00;99.90
37874;DHT22;23709;48.078;11.684;2023-08-20T00:43:06;20.90;99.90
37874;DHT22;23709;48.078;11.684;2023-08-20T00:45:40;20.80;99.90
37874;DHT22;23709;48.078;11.684;2023-08-20T00:48:13;20.80;99.90
37874;DHT22;23709;48.078;11.684;2023-08-20T00:50:46;20.90;99.90
37874;DHT22;23709;48.078;11.684;2023-08-20T00:53:18;20.90;99.90
37874;DHT22;23709;48.078;11.684;2023-08-20T00:55:51;20.80;99.90
37874;DHT22;23709;48.078;11.684;2023-08-20T00:58:23;20.70;99.90
37874;DHT22;23709;48.078;11.684;2023-08-20T01:00:56;20.70;99.90
37874;DHT22;23709;48.078;11.684;2023-08-20T01:03:28;20.60;99.90
37874;DHT22;23709;48.078;11.684;2023-08-20T01:06:20;20.50;99.90
37874;DHT22;23709;48.078;11.684;2023-08-20T01:08:59;20.50;99.90
37874;DHT22;23709;48.078;11.684;2023-08-20T01:11:37;20.50;99.90
37874;DHT22;23709;48.078;11.684;2023-08-20T01:14:15;20.50;99.90
37874;DHT22;23709;48.078;11.684;2023-08-20T01:16:48;20.50;99.90
37874;DHT22;23709;48.078;11.684;2023-08-20T01:19:21;20.40;99.90
37874;DHT22;23709;48.078;11.684;2023-08-20T01:25:08;20.40;99.90
37874;DHT22;23709;48.078;11.684;2023-08-20T01:30:36;20.40;99.90
37874;DHT22;23709;48.078;11.684;2023-08-20T01:33:10;20.30;99.90
37874;DHT22;23709;48.078;11.684;2023-08-20T01:35:44;20.30;99.90
37874;DHT22;23709;48.078;11.684;2023-08-20T01:38:20;20.30;99.90
37874;DHT22;23709;48.078;11.684;2023-08-20T01:40:52;20.20;99.90
37874;DHT22;23709;48.078;11.684;2023-08-20T01:43:25;20.10;99.90
37874;DHT22;23709;48.078;11.684;2023-08-20T01:45:59;20.10;99.90
37874;DHT22;23709;48.078;11.684;2023-08-20T01:48:31;20.30;99.90
37874;DHT22;23709;48.078;11.684;2023-08-20T01:51:04;20.40;99.90
37874;DHT22;23709;48.078;11.684;2023-08-20T01:53:36;20.50;99.90
37874;DHT22;23709;48.078;11.684;2023-08-20T01:56:13;20.40;99.90
37874;DHT22;23709;48.078;11.684;2023-08-20T01:58:45;20.30;99.90
37874;DHT22;23709;48.078;11.684;2023-08-20T02:01:17;20.30;99.90
37874;DHT22;23709;48.078;11.684;2023-08-20T02:03:50;20.20;99.90
37874;DHT22;23709;48.078;11.684;2023-08-20T02:06:22;20.10;99.90
37874;DHT22;23709;48.078;11.684;2023-08-20T02:08:54;20.00;99.90
37874;DHT22;23709;48.078;11.684;2023-08-20T02:11:27;20.00;99.90
37874;DHT22;23709;48.078;11.684;2023-08-20T02:14:02;20.00;99.90
37874;DHT22;23709;48.078;11.684;2023-08-20T02:16:34;19.90;99.90
37874;DHT22;23709;48.078;11.684;2023-08-20T02:19:07;19.90;99.90
37874;DHT22;23709;48.078;11.684;2023-08-20T02:21:40;19.90;99.90
37874;DHT22;23709;48.078;11.684;2023-08-20T02:24:12;19.70;99.90
37874;DHT22;23709;48.078;11.684;2023-08-20T02:26:45;19.70;99.90
37874;DHT22;23709;48.078;11.684;2023-08-20T02:29:17;19.70;99.90
37874;DHT22;23709;48.078;11.684;2023-08-20T02:31:49;19.60;99.90
37874;DHT22;23709;48.078;11.684;2023-08-20T02:34:22;19.60;99.90
37874;DHT22;23709;48.078;11.684;2023-08-20T02:36:55;19.60;99.90
37874;DHT22;23709;48.078;11.684;2023-08-20T02:39:27;19.50;99.90
37874;DHT22;23709;48.078;11.684;2023-08-20T02:41:59;19.50;99.90
37874;DHT22;23709;48.078;11.684;2023-08-20T02:44:32;19.60;99.90
37874;DHT22;23709;48.078;11.684;2023-08-20T02:47:04;19.70;99.90
37874;DHT22;23709;48.078;11.684;2023-08-20T02:49:37;19.70;99.90
37874;DHT22;23709;48.078;11.684;2023-08-20T02:52:09;19.70;99.90
37874;DHT22;23709;48.078;11.684;2023-08-20T02:54:42;19.70;99.90
37874;DHT22;23709;48.078;11.684;2023-08-20T02:57:14;19.80;99.90
37874;DHT22;23709;48.078;11.684;2023-08-20T02:59:46;19.70;99.90
37874;DHT22;23709;48.078;11.684;2023-08-20T03:02:19;19.60;99.90
37874;DHT22;23709;48.078;11.684;2023-08-20T03:04:51;19.50;99.90
37874;DHT22;23709;48.078;11.684;2023-08-20T03:07:23;19.40;99.90
37874;DHT22;23709;48.078;11.684;2023-08-20T03:09:55;19.40;99.90
37874;DHT22;23709;48.078;11.684;2023-08-20T03:12:27;19.40;99.90
37874;DHT22;23709;48.078;11.684;2023-08-20T03:15:00;19.30;99.90
37874;DHT22;23709;48.078;11.684;2023-08-20T03:17:32;19.30;99.90
37874;DHT22;23709;48.078;11.684;2023-08-20T03:20:05;19.30;99.90
37874;DHT22;23709;48.078;11.684;2023-08-20T03:22:38;19.30;99.90
37874;DHT22;23709;48.078;11.684;2023-08-20T03:25:10;19.40;99.90
37874;DHT22;23709;48.078;11.684;2023-08-20T03:27:43;19.30;99.90
37874;DHT22;23709;48.078;11.684;2023-08-20T03:30:16;19.30;99.90
37874;DHT22;23709;48.078;11.684;2023-08-20T03:32:49;19.30;99.90
37874;DHT22;23709;48.078;11.684;2023-08-20T03:35:21;19.20;99.90
37874;DHT22;23709;48.078;11.684;2023-08-20T03:37:54;19.20;99.90
37874;DHT22;23709;48.078;11.684;2023-08-20T03:40:27;19.20;99.90
37874;DHT22;23709;48.078;11.684;2023-08-20T03:43:00;19.10;99.90
37874;DHT22;23709;48.078;11.684;2023-08-20T03:45:32;19.00;99.90
37874;DHT22;23709;48.078;11.684;2023-08-20T03:48:04;18.90;99.90
37874;DHT22;23709;48.078;11.684;2023-08-20T03:50:37;18.90;99.90
37874;DHT22;23709;48.078;11.684;2023-08-20T03:53:09;18.90;99.90
37874;DHT22;23709;48.078;11.684;2023-08-20T03:55:41;18.90;99.90
37874;DHT22;23709;48.078;11.684;2023-08-20T03:58:14;18.90;99.90
37874;DHT22;23709;48.078;11.684;2023-08-20T04:00:46;18.80;99.90
37874;DHT22;23709;48.078;11.684;2023-08-20T04:03:19;18.80;99.90
37874;DHT22;23709;48.078;11.684;2023-08-20T04:05:51;18.80;99.90
37874;DHT22;23709;48.078;11.684;2023-08-20T04:08:24;18.80;99.90
37874;DHT22;23709;48.078;11.684;2023-08-20T04:10:56;18.80;99.90
37874;DHT22;23709;48.078;11.684;2023-08-20T04:13:29;18.70;99.90
37874;DHT22;23709;48.078;11.684;2023-08-20T04:16:02;18.70;99.90
37874;DHT22;23709;48.078;11.684;2023-08-20T04:18:34;18.70;99.90
37874;DHT22;23709;48.078;11.684;2023-08-20T04:21:07;18.70;99.90
37874;DHT22;23709;48.078;11.684;2023-08-20T04:23:40;18.60;99.90
37874;DHT22;23709;48.078;11.684;2023-08-20T04:26:14;18.50;99.90
37874;DHT22;23709;48.078;11.684;2023-08-20T04:28:46;18.60;99.90
37874;DHT22;23709;48.078;11.684;2023-08-20T04:31:19;18.70;99.90
37874;DHT22;23709;48.078;11.684;2023-08-20T04:34:05;18.70;99.90
37874;DHT22;23709;48.078;11.684;2023-08-20T04:36:44;18.70;99.90
37874;DHT22;23709;48.078;11.684;2023-08-20T04:39:16;18.70;99.90
37874;DHT22;23709;48.078;11.684;2023-08-20T04:41:53;18.80;99.90
37874;DHT22;23709;48.078;11.684;2023-08-20T04:44:26;18.80;99.90
37874;DHT22;23709;48.078;11.684;2023-08-20T04:47:00;18.80;99.90
37874;DHT22;23709;48.078;11.684;2023-08-20T04:49:35;18.80;99.90
37874;DHT22;23709;48.078;11.684;2023-08-20T04:52:07;18.80;99.90
37874;DHT22;23709;48.078;11.684;2023-08-20T04:54:40;18.80;99.90
37874;DHT22;23709;48.078;11.684;2023-08-20T04:57:13;18.80;99.90
37874;DHT22;23709;48.078;11.684;2023-08-20T04:59:46;18.80;99.90
37874;DHT22;23709;48.078;11.684;2023-08-20T05:02:21;18.80;99.90
37874;DHT22;23709;48.078;11.684;2023-08-20T05:04:58;18.80;99.90
37874;DHT22;23709;48.078;11.684;2023-08-20T05:07:31;18.80;99.90
37874;DHT22;23709;48.078;11.684;2023-08-20T05:10:04;18.80;99.90
37874;DHT22;23709;48.078;11.684;2023-08-20T05:12:37;18.80;99.90
37874;DHT22;23709;48.078;11.684;2023-08-20T05:15:10;18.80;99.90
37874;DHT22;23709;48.078;11.684;2023-08-20T05:17:43;18.70;99.90
37874;DHT22;23709;48.078;11.684;2023-08-20T05:20:16;18.70;99.90
37874;DHT22;23709;48.078;11.684;2023-08-20T05:22:48;18.70;99.90
37874;DHT22;23709;48.078;11.684;2023-08-20T05:25:20;18.60;99.90
37874;DHT22;23709;48.078;11.684;2023-08-20T05:27:54;18.60;99.90
37874;DHT22;23709;48.078;11.684;2023-08-20T05:30:27;18.70;99.90
37874;DHT22;23709;48.078;11.684;2023-08-20T05:33:00;18.70;99.90
37874;DHT22;23709;48.078;11.684;2023-08-20T05:35:39;18.80;99.90
37874;DHT22;23709;48.078;11.684;2023-08-20T05:38:11;19.00;99.90
37874;DHT22;23709;48.078;11.684;2023-08-20T05:40:44;19.10;99.90
37874;DHT22;23709;48.078;11.684;2023-08-20T05:43:16;19.00;99.90
37874;DHT22;23709;48.078;11.684;2023-08-20T05:45:49;19.20;99.90
37874;DHT22;23709;48.078;11.684;2023-08-20T05:48:25;19.40;99.90
37874;DHT22;23709;48.078;11.684;2023-08-20T05:50:57;19.50;99.90
37874;DHT22;23709;48.078;11.684;2023-08-20T05:53:30;19.60;99.90
37874;DHT22;23709;48.078;11.684;2023-08-20T05:56:02;19.70;99.90
37874;DHT22;23709;48.078;11.684;2023-08-20T05:58:34;19.80;99.90
37874;DHT22;23709;48.078;11.684;2023-08-20T06:01:07;19.90;99.90
37874;DHT22;23709;48.078;11.684;2023-08-20T06:03:39;20.10;99.90
37874;DHT22;23709;48.078;11.684;2023-08-20T06:06:12;20.20;99.90
37874;DHT22;23709;48.078;11.684;2023-08-20T06:08:44;20.30;99.90
37874;DHT22;23709;48.078;11.684;2023-08-20T06:11:36;20.40;99.90
37874;DHT22;23709;48.078;11.684;2023-08-20T06:14:09;20.50;99.90
37874;DHT22;23709;48.078;11.684;2023-08-20T06:16:41;20.60;99.90
37874;DHT22;23709;48.078;11.684;2023-08-20T06:19:13;20.60;99.90
37874;DHT22;23709;48.078;11.684;2023-08-20T06:21:45;20.80;99.90
37874;DHT22;23709;48.078;11.684;2023-08-20T06:24:18;20.90;99.90
37874;DHT22;23709;48.078;11.684;2023-08-20T06:26:51;21.00;99.90
37874;DHT22;23709;48.078;11.684;2023-08-20T06:29:23;21.20;99.90
37874;DHT22;23709;48.078;11.684;2023-08-20T06:31:56;21.40;99.90
37874;DHT22;23709;48.078;11.684;2023-08-20T06:34:28;21.50;99.90
37874;DHT22;23709;48.078;11.684;2023-08-20T06:37:01;21.60;99.90
37874;DHT22;23709;48.078;11.684;2023-08-20T06:39:33;21.80;99.90
37874;DHT22;23709;48.078;11.684;2023-08-20T06:42:06;22.00;99.90
37874;DHT22;23709;48.078;11.684;2023-08-20T06:44:38;22.10;99.90
37874;DHT22;23709;48.078;11.684;2023-08-20T06:47:10;22.30;99.90
37874;DHT22;23709;48.078;11.684;2023-08-20T06:49:44;22.40;99.90
37874;DHT22;23709;48.078;11.684;2023-08-20T06:52:17;22.50;99.90
37874;DHT22;23709;48.078;11.684;2023-08-20T06:54:49;22.70;99.90
37874;DHT22;23709;48.078;11.684;2023-08-20T06:57:22;22.80;99.90
37874;DHT22;23709;48.078;11.684;2023-08-20T06:59:54;23.00;99.90
37874;DHT22;23709;48.078;11.684;2023-08-20T07:02:27;23.10;99.90
37874;DHT22;23709;48.078;11.684;2023-08-20T07:04:59;23.20;99.90
37874;DHT22;23709;48.078;11.684;2023-08-20T07:07:31;23.40;99.90
37874;DHT22;23709;48.078;11.684;2023-08-20T07:10:04;23.50;99.90
37874;DHT22;23709;48.078;11.684;2023-08-20T07:12:37;23.70;99.90
37874;DHT22;23709;48.078;11.684;2023-08-20T07:15:10;23.80;99.90
37874;DHT22;23709;48.078;11.684;2023-08-20T07:17:42;24.00;99.90
37874;DHT22;23709;48.078;11.684;2023-08-20T07:20:17;24.10;99.90
37874;DHT22;23709;48.078;11.684;2023-08-20T07:22:49;24.20;99.90
37874;DHT22;23709;48.078;11.684;2023-08-20T07:25:22;24.40;99.90
37874;DHT22;23709;48.078;11.684;2023-08-20T07:27:54;24.60;99.90
37874;DHT22;23709;48.078;11.684;2023-08-20T07:30:31;24.80;99.90
37874;DHT22;23709;48.078;11.684;2023-08-20T07:33:06;24.90;99.90
37874;DHT22;23709;48.078;11.684;2023-08-20T07:35:38;25.00;98.80
37874;DHT22;23709;48.078;11.684;2023-08-20T07:38:10;25.20;99.30
37874;DHT22;23709;48.078;11.684;2023-08-20T07:40:43;25.30;98.00
37874;DHT22;23709;48.078;11.684;2023-08-20T07:43:15;25.40;98.90
37874;DHT22;23709;48.078;11.684;2023-08-20T07:45:48;25.60;97.00
37874;DHT22;23709;48.078;11.684;2023-08-20T07:48:20;25.70;96.70
37874;DHT22;23709;48.078;11.684;2023-08-20T07:50:52;25.80;98.60
37874;DHT22;23709;48.078;11.684;2023-08-20T07:53:25;25.80;97.60
37874;DHT22;23709;48.078;11.684;2023-08-20T07:55:57;26.10;97.60
37874;DHT22;23709;48.078;11.684;2023-08-20T07:58:30;26.30;97.00
37874;DHT22;23709;48.078;11.684;2023-08-20T08:01:02;26.30;96.70
37874;DHT22;23709;48.078;11.684;2023-08-20T08:03:34;26.40;95.70
37874;DHT22;23709;48.078;11.684;2023-08-20T08:06:07;26.50;95.10
37874;DHT22;23709;48.078;11.684;2023-08-20T08:08:42;26.60;95.50
37874;DHT22;23709;48.078;11.684;2023-08-20T08:11:14;26.80;96.10
37874;DHT22;23709;48.078;11.684;2023-08-20T08:13:47;26.70;95.50
37874;DHT22;23709;48.078;11.684;2023-08-20T08:16:20;26.80;95.80
37874;DHT22;23709;48.078;11.684;2023-08-20T08:18:52;26.80;95.10
37874;DHT22;23709;48.078;11.684;2023-08-20T08:21:25;26.90;95.10
37874;DHT22;23709;48.078;11.684;2023-08-20T08:23:57;27.00;93.80
37874;DHT22;23709;48.078;11.684;2023-08-20T08:26:30;27.00;94.00
37874;DHT22;23709;48.078;11.684;2023-08-20T08:29:03;27.30;93.80
37874;DHT22;23709;48.078;11.684;2023-08-20T08:31:35;27.40;94.40
37874;DHT22;23709;48.078;11.684;2023-08-20T08:34:08;27.60;93.20
37874;DHT22;23709;48.078;11.684;2023-08-20T08:36:40;27.60;92.00
37874;DHT22;23709;48.078;11.684;2023-08-20T08:39:16;27.70;92.50
37874;DHT22;23709;48.078;11.684;2023-08-20T08:41:51;27.80;92.10
37874;DHT22;23709;48.078;11.684;2023-08-20T08:44:26;27.90;92.50
37874;DHT22;23709;48.078;11.684;2023-08-20T08:46:58;27.90;90.80
37874;DHT22;23709;48.078;11.684;2023-08-20T08:49:34;28.00;90.70
37874;DHT22;23709;48.078;11.684;2023-08-20T08:52:07;28.20;89.50
37874;DHT22;23709;48.078;11.684;2023-08-20T08:54:42;28.30;87.20
37874;DHT22;23709;48.078;11.684;2023-08-20T08:57:15;28.30;87.80
37874;DHT22;23709;48.078;11.684;2023-08-20T08:59:48;28.40;84.40
37874;DHT22;23709;48.078;11.684;2023-08-20T09:02:20;28.30;85.00
37874;DHT22;23709;48.078;11.684;2023-08-20T09:04:53;28.40;87.00
37874;DHT22;23709;48.078;11.684;2023-08-20T09:07:25;28.50;85.40
37874;DHT22;23709;48.078;11.684;2023-08-20T09:09:59;28.50;83.50
37874;DHT22;23709;48.078;11.684;2023-08-20T09:12:34;28.50;83.70
37874;DHT22;23709;48.078;11.684;2023-08-20T09:15:11;28.60;83.00
37874;DHT22;23709;48.078;11.684;2023-08-20T09:17:44;28.60;82.50
37874;DHT22;23709;48.078;11.684;2023-08-20T09:20:33;28.60;82.80
37874;DHT22;23709;48.078;11.684;2023-08-20T09:23:11;28.70;82.40
37874;DHT22;23709;48.078;11.684;2023-08-20T09:25:45;28.80;83.00
37874;DHT22;23709;48.078;11.684;2023-08-20T09:28:18;28.80;81.40
37874;DHT22;23709;48.078;11.684;2023-08-20T09:30:58;28.90;82.20
37874;DHT22;23709;48.078;11.684;2023-08-20T09:33:34;28.90;82.40
37874;DHT22;23709;48.078;11.684;2023-08-20T09:36:07;29.00;81.80
37874;DHT22;23709;48.078;11.684;2023-08-20T09:38:40;29.10;79.90
37874;DHT22;23709;48.078;11.684;2023-08-20T09:41:15;29.10;80.70
37874;DHT22;23709;48.078;11.684;2023-08-20T09:43:48;29.10;79.60
37874;DHT22;23709;48.078;11.684;2023-08-20T09:46:27;29.20;81.30
37874;DHT22;23709;48.078;11.684;2023-08-20T09:49:02;29.20;80.60
37874;DHT22;23709;48.078;11.684;2023-08-20T09:51:35;29.30;81.20
37874;DHT22;23709;48.078;11.684;2023-08-20T09:54:21;29.30;79.90
37874;DHT22;23709;48.078;11.684;2023-08-20T09:56:57;29.40;81.00
37874;DHT22;23709;48.078;11.684;2023-08-20T09:59:31;29.40;81.30
37874;DHT22;23709;48.078;11.684;2023-08-20T10:02:04;29.50;80.80
37874;DHT22;23709;48.078;11.684;2023-08-20T10:04:37;29.60;78.90
37874;DHT22;23709;48.078;11.684;2023-08-20T10:07:11;29.60;77.80
37874;DHT22;23709;48.078;11.684;2023-08-20T10:09:44;29.60;78.70
37874;DHT22;23709;48.078;11.684;2023-08-20T10:12:18;29.60;79.10
37874;DHT22;23709;48.078;11.684;2023-08-20T10:14:52;29.60;78.30
37874;DHT22;23709;48.078;11.684;2023-08-20T10:17:25;29.60;75.90
37874;DHT22;23709;48.078;11.684;2023-08-20T10:19:58;29.60;76.30
37874;DHT22;23709;48.078;11.684;2023-08-20T10:22:36;29.70;75.40
37874;DHT22;23709;48.078;11.684;2023-08-20T10:25:25;29.70;74.70
37874;DHT22;23709;48.078;11.684;2023-08-20T10:28:25;29.70;75.10
37874;DHT22;23709;48.078;11.684;2023-08-20T10:31:12;29.70;73.90
37874;DHT22;23709;48.078;11.684;2023-08-20T10:36:21;29.80;72.20
37874;DHT22;23709;48.078;11.684;2023-08-20T10:39:04;29.80;71.20
37874;DHT22;23709;48.078;11.684;2023-08-20T10:41:37;29.80;71.30
37874;DHT22;23709;48.078;11.684;2023-08-20T10:44:10;29.80;69.00
37874;DHT22;23709;48.078;11.684;2023-08-20T10:46:50;29.90;70.70
37874;DHT22;23709;48.078;11.684;2023-08-20T10:49:23;29.90;71.50
37874;DHT22;23709;48.078;11.684;2023-08-20T10:51:56;30.10;71.10
37874;DHT22;23709;48.078;11.684;2023-08-20T10:54:29;30.10;70.90
37874;DHT22;23709;48.078;11.684;2023-08-20T10:57:02;30.20;69.10
37874;DHT22;23709;48.078;11.684;2023-08-20T10:59:40;30.20;68.70
37874;DHT22;23709;48.078;11.684;2023-08-20T11:02:14;30.30;69.80
37874;DHT22;23709;48.078;11.684;2023-08-20T11:04:51;30.40;67.60
37874;DHT22;23709;48.078;11.684;2023-08-20T11:07:25;30.50;68.00
37874;DHT22;23709;48.078;11.684;2023-08-20T11:09:59;30.60;66.20
37874;DHT22;23709;48.078;11.684;2023-08-20T11:12:33;30.90;70.90
37874;DHT22;23709;48.078;11.684;2023-08-20T11:15:05;31.40;68.00
37874;DHT22;23709;48.078;11.684;2023-08-20T11:17:45;31.80;66.90
37874;DHT22;23709;48.078;11.684;2023-08-20T11:20:21;32.00;66.30
37874;DHT22;23709;48.078;11.684;2023-08-20T11:22:54;32.20;65.40
37874;DHT22;23709;48.078;11.684;2023-08-20T11:25:26;32.40;64.90
37874;DHT22;23709;48.078;11.684;2023-08-20T11:27:59;32.70;64.60
37874;DHT22;23709;48.078;11.684;2023-08-20T11:30:32;33.00;64.00
37874;DHT22;23709;48.078;11.684;2023-08-20T11:33:05;33.30;64.20
37874;DHT22;23709;48.078;11.684;2023-08-20T11:35:37;33.40;61.90
37874;DHT22;23709;48.078;11.684;2023-08-20T11:38:10;33.60;60.40
37874;DHT22;23709;48.078;11.684;2023-08-20T11:40:43;33.90;60.20
37874;DHT22;23709;48.078;11.684;2023-08-20T11:43:15;34.30;61.70
37874;DHT22;23709;48.078;11.684;2023-08-20T11:45:49;34.50;58.90
37874;DHT22;23709;48.078;11.684;2023-08-20T11:48:22;34.70;59.60
37874;DHT22;23709;48.078;11.684;2023-08-20T11:50:56;34.60;59.50
37874;DHT22;23709;48.078;11.684;2023-08-20T11:53:29;34.70;61.30
37874;DHT22;23709;48.078;11.684;2023-08-20T11:56:01;34.80;62.00
37874;DHT22;23709;48.078;11.684;2023-08-20T11:58:34;34.80;59.80
37874;DHT22;23709;48.078;11.684;2023-08-20T12:01:09;35.00;61.00
37874;DHT22;23709;48.078;11.684;2023-08-20T12:03:43;35.10;59.30
37874;DHT22;23709;48.078;11.684;2023-08-20T12:06:20;35.20;60.90
37874;DHT22;23709;48.078;11.684;2023-08-20T12:08:52;35.10;60.20
37874;DHT22;23709;48.078;11.684;2023-08-20T12:11:28;35.40;59.00
37874;DHT22;23709;48.078;11.684;2023-08-20T12:14:01;35.60;57.50
37874;DHT22;23709;48.078;11.684;2023-08-20T12:16:33;35.70;56.90
37874;DHT22;23709;48.078;11.684;2023-08-20T12:19:05;35.90;57.40
37874;DHT22;23709;48.078;11.684;2023-08-20T12:21:38;36.20;56.30
37874;DHT22;23709;48.078;11.684;2023-08-20T12:24:11;36.10;56.30
37874;DHT22;23709;48.078;11.684;2023-08-20T12:26:43;36.30;57.00
37874;DHT22;23709;48.078;11.684;2023-08-20T12:29:16;36.70;59.00
37874;DHT22;23709;48.078;11.684;2023-08-20T12:31:48;36.80;55.70
37874;DHT22;23709;48.078;11.684;2023-08-20T12:34:21;36.70;54.30
37874;DHT22;23709;48.078;11.684;2023-08-20T12:36:53;36.70;55.30
37874;DHT22;23709;48.078;11.684;2023-08-20T12:39:26;36.80;54.50
37874;DHT22;23709;48.078;11.684;2023-08-20T12:41:59;36.80;54.40
37874;DHT22;23709;48.078;11.684;2023-08-20T12:44:31;36.90;55.00
37874;DHT22;23709;48.078;11.684;2023-08-20T12:47:03;37.10;55.90
37874;DHT22;23709;48.078;11.684;2023-08-20T12:49:36;37.30;53.90
37874;DHT22;23709;48.078;11.684;2023-08-20T12:52:08;37.20;53.00
37874;DHT22;23709;48.078;11.684;2023-08-20T12:54:40;37.00;52.30
37874;DHT22;23709;48.078;11.684;2023-08-20T12:57:13;37.30;52.80
37874;DHT22;23709;48.078;11.684;2023-08-20T12:59:45;37.50;53.50
37874;DHT22;23709;48.078;11.684;2023-08-20T13:02:18;37.60;50.60
37874;DHT22;23709;48.078;11.684;2023-08-20T13:04:51;37.60;51.60
37874;DHT22;23709;48.078;11.684;2023-08-20T13:07:24;37.80;52.50
37874;DHT22;23709;48.078;11.684;2023-08-20T13:09:56;37.70;50.80
37874;DHT22;23709;48.078;11.684;2023-08-20T13:12:30;37.50;51.20
37874;DHT22;23709;48.078;11.684;2023-08-20T13:15:04;37.70;50.60
37874;DHT22;23709;48.078;11.684;2023-08-20T13:17:37;37.70;51.40
37874;DHT22;23709;48.078;11.684;2023-08-20T13:20:10;37.90;50.50
37874;DHT22;23709;48.078;11.684;2023-08-20T13:22:44;37.90;49.40
37874;DHT22;23709;48.078;11.684;2023-08-20T13:25:17;37.80;49.80
37874;DHT22;23709;48.078;11.684;2023-08-20T13:27:50;37.50;50.50
37874;DHT22;23709;48.078;11.684;2023-08-20T13:30:22;37.50;51.00
37874;DHT22;23709;48.078;11.684;2023-08-20T13:32:54;37.70;50.10
37874;DHT22;23709;48.078;11.684;2023-08-20T13:35:29;37.80;49.30
37874;DHT22;23709;48.078;11.684;2023-08-20T13:38:01;37.80;51.20
37874;DHT22;23709;48.078;11.684;2023-08-20T13:40:33;37.90;51.10
37874;DHT22;23709;48.078;11.684;2023-08-20T13:43:06;37.70;51.10
37874;DHT22;23709;48.078;11.684;2023-08-20T13:45:38;37.60;50.50
37874;DHT22;23709;48.078;11.684;2023-08-20T13:48:12;37.50;49.70
37874;DHT22;23709;48.078;11.684;2023-08-20T13:50:44;37.60;51.10
37874;DHT22;23709;48.078;11.684;2023-08-20T13:53:16;37.50;50.90
37874;DHT22;23709;48.078;11.684;2023-08-20T13:55:49;37.60;52.10
37874;DHT22;23709;48.078;11.684;2023-08-20T13:58:22;37.70;51.90
37874;DHT22;23709;48.078;11.684;2023-08-20T14:00:54;37.90;51.10
37874;DHT22;23709;48.078;11.684;2023-08-20T14:03:26;37.60;51.40
37874;DHT22;23709;48.078;11.684;2023-08-20T14:05:59;37.70;50.80
37874;DHT22;23709;48.078;11.684;2023-08-20T14:08:32;37.70;52.50
37874;DHT22;23709;48.078;11.684;2023-08-20T14:11:05;38.00;50.60
37874;DHT22;23709;48.078;11.684;2023-08-20T14:13:37;37.80;50.10
37874;DHT22;23709;48.078;11.684;2023-08-20T14:16:10;38.00;50.70
37874;DHT22;23709;48.078;11.684;2023-08-20T14:18:43;38.10;50.30
37874;DHT22;23709;48.078;11.684;2023-08-20T14:21:15;38.00;50.60
37874;DHT22;23709;48.078;11.684;2023-08-20T14:23:48;37.90;49.60
37874;DHT22;23709;48.078;11.684;2023-08-20T14:26:20;37.90;51.50
37874;DHT22;23709;48.078;11.684;2023-08-20T14:28:52;38.00;50.40
37874;DHT22;23709;48.078;11.684;2023-08-20T14:31:25;37.80;51.30
37874;DHT22;23709;48.078;11.684;2023-08-20T14:33:57;37.90;50.70
37874;DHT22;23709;48.078;11.684;2023-08-20T14:36:30;38.00;51.50
37874;DHT22;23709;48.078;11.684;2023-08-20T14:39:05;37.80;51.30
37874;DHT22;23709;48.078;11.684;2023-08-20T14:41:38;37.90;52.40
37874;DHT22;23709;48.078;11.684;2023-08-20T14:44:10;37.20;50.90
37874;DHT22;23709;48.078;11.684;2023-08-20T14:46:43;36.50;52.70
37874;DHT22;23709;48.078;11.684;2023-08-20T14:49:16;36.50;53.30
37874;DHT22;23709;48.078;11.684;2023-08-20T14:51:49;36.30;53.40
37874;DHT22;23709;48.078;11.684;2023-08-20T14:54:22;36.00;53.50
37874;DHT22;23709;48.078;11.684;2023-08-20T14:56:55;35.50;54.40
37874;DHT22;23709;48.078;11.684;2023-08-20T14:59:27;35.20;54.50
37874;DHT22;23709;48.078;11.684;2023-08-20T15:02:00;35.00;56.00
37874;DHT22;23709;48.078;11.684;2023-08-20T15:04:33;34.90;56.30
37874;DHT22;23709;48.078;11.684;2023-08-20T15:07:05;34.90;55.30
37874;DHT22;23709;48.078;11.684;2023-08-20T15:09:38;35.00;55.90
37874;DHT22;23709;48.078;11.684;2023-08-20T15:12:10;34.70;56.90
37874;DHT22;23709;48.078;11.684;2023-08-20T15:14:42;34.40;58.60
37874;DHT22;23709;48.078;11.684;2023-08-20T15:17:15;34.50;58.40
37874;DHT22;23709;48.078;11.684;2023-08-20T15:19:48;34.60;57.10
37874;DHT22;23709;48.078;11.684;2023-08-20T15:22:21;34.70;57.20
37874;DHT22;23709;48.078;11.684;2023-08-20T15:24:53;34.60;57.20
37874;DHT22;23709;48.078;11.684;2023-08-20T15:27:26;34.70;56.60
37874;DHT22;23709;48.078;11.684;2023-08-20T15:29:58;34.80;57.10
37874;DHT22;23709;48.078;11.684;2023-08-20T15:32:31;34.90;56.80
37874;DHT22;23709;48.078;11.684;2023-08-20T15:35:03;34.90;56.50
37874;DHT22;23709;48.078;11.684;2023-08-20T15:37:39;34.70;56.30
37874;DHT22;23709;48.078;11.684;2023-08-20T15:40:14;34.90;56.30
37874;DHT22;23709;48.078;11.684;2023-08-20T15:42:47;34.80;55.70
37874;DHT22;23709;48.078;11.684;2023-08-20T15:45:20;34.90;55.80
37874;DHT22;23709;48.078;11.684;2023-08-20T15:47:52;35.10;55.40
37874;DHT22;23709;48.078;11.684;2023-08-20T15:50:25;35.10;55.70
37874;DHT22;23709;48.078;11.684;2023-08-20T15:53:00;35.10;56.50
37874;DHT22;23709;48.078;11.684;2023-08-20T15:55:32;34.90;56.60
37874;DHT22;23709;48.078;11.684;2023-08-20T15:58:08;35.10;55.80
37874;DHT22;23709;48.078;11.684;2023-08-20T16:00:40;35.10;56.70
37874;DHT22;23709;48.078;11.684;2023-08-20T16:03:13;35.10;57.20
37874;DHT22;23709;48.078;11.684;2023-08-20T16:05:46;35.00;57.30